Lazaro Cardenas, Mexico

1:29 PM CDT on July 27, 2016 (GMT -0500)
Ixtapa-Zihuatanejo International | | Change Station

Elev 20 ft 17.60 °N, 101.46 °W | Updated 43 minutes ago

Mostly Cloudy
Mostly Cloudy
91 °F
Feels Like 105 °F
N
7
Wind Variable Wind from SW

Today
High -- | Low -- °F
--% Chance of Precip.
Yesterday
High -- | Low -- °F
Precip. -- in
Pressure 29.83 in
Visibility 6.0 miles
Clouds Mostly Cloudy 25000 ft
Heat Index 105 °F
Dew Point 77 °F
Humidity 63%
Rainfall 0.00 in
Snow Depth Not available.
7:25 AM 8:24 PM
Last Quarter, 41% visible
METAR MMZH 271746Z 22006KT 6SM BKN250 33/25 A2984 RMK SLP0099 57006 963 8/002 HZY ISOL CU
Pressure 29.83 in
Visibility 6.0 miles
Clouds Mostly Cloudy 25000 ft
Heat Index 105 °F
Dew Point 77 °F
Humidity 63%
Rainfall 0.00 in
Snow Depth Not available.
7:25 AM 8:24 PM
Last Quarter, 41% visible
METAR MMZH 271746Z 22006KT 6SM BKN250 33/25 A2984 RMK SLP0099 57006 963 8/002 HZY ISOL CU

10-Day Weather Forecast

No radar image for this location.
×

Almanac

Astronomy

Jul. 27, 2016 Rise Set
Actual Time
Civil Twilight
Nautical Twilight
Astronomical Twilight
Moon
Length of Visible Light
Length of Day
Tomorrow will be .
, % of the Moon is Illuminated

Today's Extremes

Country Highs Country Lows

Community

WunderPhotos

Upload Photos

1,927,894 photos uploaded!

WunderBlog® & News

Nearby

Air Quality

  Air Quality AQ Index Pollutant
Not available.

Snow Depth

Station Depth Elevation

Earthquake Activity

City Distance Mag. Time & Date
Minimum magnitude displayed is 2.5.

Coastal Water Temperatures

Place Temperature

Stations

Nearby Weather Stations

Station Location Temp. Windchill Dew Point Humidity Wind Precip. Elev Updated Type